createdAt,value
2023-04-26T00:02:38.068Z,17.12
2023-04-26T00:05:39.918Z,17.10
2023-04-26T00:08:42.260Z,17.09
2023-04-26T00:11:43.736Z,17.09
2023-04-26T00:14:45.345Z,17.09
2023-04-26T00:17:47.379Z,17.08
2023-04-26T00:20:48.934Z,17.08
2023-04-26T00:23:50.651Z,17.06
2023-04-26T00:26:55.688Z,17.07
2023-04-26T00:29:57.293Z,17.07
2023-04-26T00:32:58.819Z,17.04
2023-04-26T00:36:00.414Z,17.04
2023-04-26T00:39:02.620Z,17.04
2023-04-26T00:42:04.335Z,17.03
2023-04-26T00:45:07.351Z,17.04
2023-04-26T00:48:08.909Z,17.02
2023-04-26T00:51:10.563Z,17.02
2023-04-26T00:54:14.074Z,17.02
2023-04-26T00:57:15.847Z,17.01
2023-04-26T01:00:17.512Z,17.01
2023-04-26T01:03:20.319Z,17.01
2023-04-26T01:06:22.583Z,16.99
2023-04-26T01:09:24.091Z,16.97
2023-04-26T01:12:26.683Z,16.97
2023-04-26T01:15:29.907Z,16.96
2023-04-26T01:18:31.458Z,16.96
2023-04-26T01:21:33.347Z,16.95
2023-04-26T01:24:36.116Z,16.95
2023-04-26T01:27:39.108Z,16.95
2023-04-26T01:30:40.661Z,16.94
2023-04-26T01:33:42.265Z,16.94
2023-04-26T01:36:43.714Z,16.93
2023-04-26T01:39:45.167Z,16.92
2023-04-26T01:42:46.700Z,16.91
2023-04-26T01:45:48.296Z,16.91
2023-04-26T01:49:05.154Z,16.90
2023-04-26T01:52:06.660Z,16.91
2023-04-26T01:55:08.825Z,16.90
2023-04-26T01:58:10.505Z,16.89
2023-04-26T02:01:12.349Z,16.89
2023-04-26T02:04:13.879Z,16.87
2023-04-26T02:07:15.421Z,16.86
2023-04-26T02:10:20.468Z,16.85
2023-04-26T02:13:22.013Z,16.84
2023-04-26T02:16:24.379Z,16.85
2023-04-26T02:19:26.141Z,16.84
2023-04-26T02:22:27.756Z,16.83
2023-04-26T02:25:29.350Z,16.83
2023-04-26T02:28:31.473Z,16.81
2023-04-26T02:31:32.985Z,16.82
2023-04-26T02:34:34.655Z,16.82
2023-04-26T02:37:39.685Z,16.81
2023-04-26T02:40:41.245Z,16.80
2023-04-26T02:43:44.110Z,16.80
2023-04-26T02:46:45.771Z,16.79
2023-04-26T02:49:47.258Z,16.78
2023-04-26T02:52:48.779Z,16.79
2023-04-26T02:55:51.209Z,16.77
2023-04-26T02:58:52.990Z,16.78
2023-04-26T03:01:54.805Z,16.78
2023-04-26T03:04:56.991Z,16.78
2023-04-26T03:07:58.533Z,16.80
2023-04-26T03:11:00.281Z,16.81
2023-04-26T03:14:02.435Z,16.84
2023-04-26T03:17:04.949Z,16.85
2023-04-26T03:20:08.044Z,16.89
2023-04-26T03:23:09.616Z,16.92
2023-04-26T03:26:12.176Z,16.94
2023-04-26T03:29:13.758Z,16.97
2023-04-26T03:32:15.455Z,17.00
2023-04-26T03:35:17.184Z,17.02
2023-04-26T03:38:18.727Z,17.04
2023-04-26T03:41:20.926Z,17.08
2023-04-26T03:44:22.544Z,17.09
2023-04-26T03:47:24.242Z,17.12
2023-04-26T03:50:26.419Z,17.13
2023-04-26T03:53:28.040Z,17.15
2023-04-26T03:56:29.574Z,17.15
2023-04-26T03:59:31.592Z,17.17
2023-04-26T04:02:34.425Z,17.17
2023-04-26T04:05:36.205Z,17.16
2023-04-26T04:08:38.692Z,17.17
2023-04-26T04:11:40.526Z,17.17
2023-04-26T04:14:42.110Z,17.15
2023-04-26T04:17:43.786Z,17.16
2023-04-26T04:20:46.076Z,17.15
2023-04-26T04:23:47.821Z,17.15
2023-04-26T04:26:49.914Z,17.14
2023-04-26T04:29:51.477Z,17.12
2023-04-26T04:32:54.172Z,17.11
2023-04-26T04:35:55.844Z,17.09
2023-04-26T04:38:58.138Z,17.08
2023-04-26T04:42:00.399Z,17.06
2023-04-26T04:45:02.385Z,17.06
2023-04-26T04:48:05.165Z,17.04
2023-04-26T04:51:07.994Z,17.03
2023-04-26T04:54:14.425Z,17.03
2023-04-26T04:57:16.810Z,17.02
2023-04-26T05:00:20.272Z,17.03
2023-04-26T05:03:29.277Z,17.04
2023-04-26T05:06:32.145Z,17.05
2023-04-26T05:09:33.890Z,17.06
2023-04-26T05:12:35.595Z,17.08
2023-04-26T05:15:38.408Z,17.09
2023-04-26T05:18:40.109Z,17.11
2023-04-26T05:21:41.978Z,17.12
2023-04-26T05:24:47.689Z,17.14
2023-04-26T05:27:50.011Z,17.14
2023-04-26T05:31:01.905Z,17.15
2023-04-26T05:34:25.709Z,17.16
2023-04-26T05:37:31.644Z,17.15
2023-04-26T05:40:33.140Z,17.15
2023-04-26T05:43:35.397Z,17.15
2023-04-26T05:46:37.000Z,17.15
2023-04-26T05:49:38.486Z,17.15
2023-04-26T05:52:40.789Z,17.15
2023-04-26T05:55:43.338Z,17.13
2023-04-26T05:58:45.289Z,17.13
2023-04-26T06:01:46.991Z,17.11
2023-04-26T06:04:48.528Z,17.10
2023-04-26T06:07:52.213Z,17.10
2023-04-26T06:10:54.499Z,17.08
2023-04-26T06:13:55.968Z,17.07
2023-04-26T06:16:57.993Z,17.05
2023-04-26T06:19:59.755Z,17.04
2023-04-26T06:23:01.295Z,17.02
2023-04-26T06:26:02.851Z,17.02
2023-04-26T06:29:04.517Z,17.02
2023-04-26T06:32:06.278Z,17.01
2023-04-26T06:35:09.052Z,17.01
2023-04-26T06:38:12.668Z,16.99
2023-04-26T06:41:14.373Z,16.99
2023-04-26T06:44:15.846Z,16.99
2023-04-26T06:47:17.531Z,16.99
2023-04-26T06:50:19.135Z,16.98
2023-04-26T06:53:22.945Z,16.97
2023-04-26T06:56:24.856Z,16.98
2023-04-26T06:59:26.509Z,16.97
2023-04-26T07:02:28.061Z,16.96
2023-04-26T07:05:29.596Z,16.95
2023-04-26T07:08:31.329Z,16.94
2023-04-26T07:11:32.849Z,16.93
2023-04-26T07:14:37.177Z,16.93
2023-04-26T07:17:40.160Z,16.93
2023-04-26T07:20:42.088Z,16.91
2023-04-26T07:23:43.602Z,16.91
2023-04-26T07:26:45.399Z,16.91
2023-04-26T07:29:47.119Z,16.90
2023-04-26T07:32:48.775Z,16.89
2023-04-26T07:35:56.572Z,16.91
2023-04-26T07:38:58.148Z,16.89
2023-04-26T07:41:59.648Z,16.89
2023-04-26T07:45:01.126Z,16.88
2023-04-26T07:48:02.662Z,16.89
2023-04-26T07:51:08.971Z,16.89
2023-04-26T07:54:10.936Z,16.89
2023-04-26T07:57:12.458Z,16.88
2023-04-26T08:00:15.833Z,16.88
2023-04-26T08:03:18.158Z,16.88
2023-04-26T08:06:20.045Z,16.87
2023-04-26T08:09:21.881Z,16.88
2023-04-26T08:12:23.392Z,16.88
2023-04-26T08:15:24.909Z,16.87
2023-04-26T08:18:26.411Z,16.86
2023-04-26T08:21:27.895Z,16.85
2023-04-26T08:24:29.540Z,16.86
2023-04-26T08:27:31.848Z,16.85
2023-04-26T08:30:33.584Z,16.86
2023-04-26T08:33:35.281Z,16.85
2023-04-26T08:36:41.511Z,16.85
2023-04-26T08:39:42.997Z,16.84
2023-04-26T08:42:44.503Z,16.82
2023-04-26T08:45:49.309Z,16.84
2023-04-26T08:49:05.683Z,16.84
2023-04-26T08:52:15.919Z,16.83
2023-04-26T08:55:20.005Z,16.83
2023-04-26T08:58:23.122Z,16.83
2023-04-26T09:01:26.020Z,16.81
2023-04-26T09:04:27.751Z,16.81
2023-04-26T09:07:38.233Z,16.82
2023-04-26T09:10:39.706Z,16.80
2023-04-26T09:13:41.174Z,16.80
2023-04-26T09:16:42.754Z,16.80
2023-04-26T09:19:45.567Z,16.80
2023-04-26T09:22:47.177Z,16.80
2023-04-26T09:25:48.661Z,16.80
2023-04-26T09:28:50.657Z,16.79
2023-04-26T09:31:52.751Z,16.78
2023-04-26T09:34:54.410Z,16.79
2023-04-26T09:38:12.114Z,16.77
2023-04-26T09:41:14.481Z,16.78
2023-04-26T09:44:25.773Z,16.77
2023-04-26T09:47:27.252Z,16.76
2023-04-26T09:50:30.320Z,16.75
2023-04-26T09:53:49.924Z,16.76
2023-04-26T09:57:01.600Z,16.76
2023-04-26T10:00:10.240Z,16.76
2023-04-26T10:03:12.899Z,16.74
2023-04-26T10:06:14.886Z,16.73
2023-04-26T10:09:16.408Z,16.73
2023-04-26T10:12:20.048Z,16.72
2023-04-26T10:15:21.855Z,16.72
2023-04-26T10:18:23.375Z,16.70
2023-04-26T10:21:31.851Z,16.72
2023-04-26T10:24:34.934Z,16.70
2023-04-26T10:27:45.401Z,16.71
2023-04-26T10:30:57.777Z,16.70
2023-04-26T10:34:18.631Z,16.69
2023-04-26T10:37:20.211Z,16.67
2023-04-26T10:40:27.849Z,16.69
2023-04-26T10:43:29.811Z,16.67
2023-04-26T10:46:40.623Z,16.67
2023-04-26T10:49:46.957Z,16.67
2023-04-26T10:53:03.549Z,16.67
2023-04-26T10:56:05.311Z,16.66
2023-04-26T11:02:52.934Z,16.65
2023-04-26T11:05:55.393Z,16.63
2023-04-26T11:08:59.880Z,16.64
2023-04-26T11:12:02.545Z,16.63
2023-04-26T11:15:04.361Z,16.63
2023-04-26T11:18:06.306Z,16.64
2023-04-26T11:21:08.916Z,16.64
2023-04-26T11:24:10.435Z,16.63
2023-04-26T11:27:18.128Z,16.63
2023-04-26T11:30:19.950Z,16.63
2023-04-26T11:33:23.046Z,16.64
2023-04-26T11:36:24.940Z,16.65
2023-04-26T11:39:27.102Z,16.65
2023-04-26T11:42:28.578Z,16.63
2023-04-26T11:45:32.736Z,16.66
2023-04-26T11:48:35.785Z,16.66
2023-04-26T11:51:37.482Z,16.65
2023-04-26T11:54:39.064Z,16.65
2023-04-26T11:57:40.915Z,16.65
2023-04-26T12:00:59.663Z,16.65
2023-04-26T12:04:01.658Z,16.64
2023-04-26T12:07:07.074Z,16.64
2023-04-26T12:10:16.646Z,16.63
2023-04-26T12:13:19.371Z,16.62
2023-04-26T12:16:26.702Z,16.62
2023-04-26T12:19:38.303Z,16.62
2023-04-26T12:22:39.880Z,16.61
2023-04-26T12:25:51.615Z,16.62
2023-04-26T12:28:53.116Z,16.61
2023-04-26T12:31:54.709Z,16.61
2023-04-26T12:34:56.175Z,16.60
2023-04-26T12:38:00.494Z,16.59
2023-04-26T12:41:02.150Z,16.59
2023-04-26T12:44:03.718Z,16.61
2023-04-26T12:47:05.672Z,16.61
2023-04-26T12:50:08.076Z,16.61
2023-04-26T12:53:11.076Z,16.59
2023-04-26T12:56:12.565Z,16.58
2023-04-26T12:59:14.108Z,16.58
2023-04-26T13:02:15.749Z,16.57
2023-04-26T13:05:17.318Z,16.56
2023-04-26T13:08:18.860Z,16.57
2023-04-26T13:11:20.595Z,16.57
2023-04-26T13:14:25.135Z,16.57
2023-04-26T13:17:26.892Z,16.58
2023-04-26T13:20:30.413Z,16.59
2023-04-26T13:23:32.582Z,16.58
2023-04-26T13:26:34.233Z,16.58
2023-04-26T13:29:36.266Z,16.57
2023-04-26T13:32:37.780Z,16.55
2023-04-26T13:35:39.292Z,16.55
2023-04-26T13:38:40.789Z,16.53
2023-04-26T13:41:42.254Z,16.53
2023-04-26T13:44:44.366Z,16.53
2023-04-26T13:47:45.932Z,16.52
2023-04-26T13:50:47.470Z,16.53
2023-04-26T13:53:49.043Z,16.52
2023-04-26T13:56:50.539Z,16.54
2023-04-26T13:59:54.858Z,16.55
2023-04-26T14:02:56.773Z,16.57
2023-04-26T14:05:58.404Z,16.59
2023-04-26T14:09:00.295Z,16.60
2023-04-26T14:15:08.875Z,16.63
2023-04-26T14:18:11.183Z,16.63
2023-04-26T14:21:12.770Z,16.63
2023-04-26T14:24:14.294Z,16.63
2023-04-26T14:27:16.204Z,16.63
2023-04-26T14:30:17.686Z,16.63
2023-04-26T14:33:19.217Z,16.66
2023-04-26T14:36:20.796Z,16.67
2023-04-26T14:39:24.467Z,16.71
2023-04-26T14:42:26.257Z,16.76
2023-04-26T14:45:42.853Z,16.80
2023-04-26T14:48:46.575Z,16.81
2023-04-26T14:51:48.086Z,16.87
2023-04-26T14:54:51.678Z,16.90
2023-04-26T14:57:54.432Z,16.95
2023-04-26T15:00:56.012Z,17.01
2023-04-26T15:04:00.218Z,17.05
2023-04-26T15:07:02.701Z,17.10
2023-04-26T15:10:05.963Z,17.14
2023-04-26T15:13:07.620Z,17.15
2023-04-26T15:16:09.125Z,17.18
2023-04-26T15:19:10.655Z,17.20
2023-04-26T15:22:12.137Z,17.20
2023-04-26T15:25:13.803Z,17.23
2023-04-26T15:28:16.593Z,17.25
2023-04-26T15:31:20.759Z,17.26
2023-04-26T15:34:25.150Z,17.23
2023-04-26T15:37:26.583Z,17.21
2023-04-26T15:40:28.168Z,17.22
2023-04-26T15:43:29.665Z,17.22
2023-04-26T15:46:31.401Z,17.22
2023-04-26T15:49:32.986Z,17.21
2023-04-26T15:52:38.578Z,17.21
2023-04-26T15:55:41.528Z,17.21
2023-04-26T15:58:45.206Z,17.20
2023-04-26T16:01:46.905Z,17.20
2023-04-26T16:04:48.523Z,17.19
2023-04-26T16:07:50.751Z,17.19
2023-04-26T16:10:52.238Z,17.20
2023-04-26T16:13:53.718Z,17.20
2023-04-26T16:16:55.445Z,17.21
2023-04-26T16:19:56.906Z,17.22
2023-04-26T16:22:58.423Z,17.21
2023-04-26T16:26:00.071Z,17.21
2023-04-26T16:29:01.754Z,17.23
2023-04-26T16:32:03.437Z,17.23
2023-04-26T16:35:08.884Z,17.23
2023-04-26T16:38:10.574Z,17.23
2023-04-26T16:41:12.131Z,17.24
2023-04-26T16:44:13.632Z,17.25
2023-04-26T16:47:15.105Z,17.26
2023-04-26T16:50:16.561Z,17.28
2023-04-26T16:53:18.296Z,17.28
2023-04-26T16:56:19.921Z,17.30
2023-04-26T16:59:22.147Z,17.31
2023-04-26T17:02:23.694Z,17.32
2023-04-26T17:05:25.785Z,17.31
2023-04-26T17:08:27.378Z,17.32
2023-04-26T17:11:29.471Z,17.32
2023-04-26T17:14:32.619Z,17.33
2023-04-26T17:17:34.516Z,17.32
2023-04-26T17:20:36.293Z,17.32
2023-04-26T17:23:37.815Z,17.34
2023-04-26T17:26:39.396Z,17.35
2023-04-26T17:29:41.408Z,17.35
2023-04-26T17:32:42.919Z,17.34
2023-04-26T17:35:44.532Z,17.35
2023-04-26T17:38:46.104Z,17.35
2023-04-26T17:41:47.578Z,17.33
2023-04-26T17:44:49.052Z,17.33
2023-04-26T17:47:50.724Z,17.31
2023-04-26T17:50:52.843Z,17.29
2023-04-26T17:53:54.513Z,17.27
2023-04-26T17:56:56.411Z,17.25
2023-04-26T17:59:57.890Z,17.25
2023-04-26T18:03:02.821Z,17.23
2023-04-26T18:06:04.646Z,17.23
2023-04-26T18:09:06.147Z,17.22
2023-04-26T18:12:08.430Z,17.21
2023-04-26T18:15:10.333Z,17.22
2023-04-26T18:18:11.950Z,17.21
2023-04-26T18:21:13.809Z,17.22
2023-04-26T18:24:15.420Z,17.22
2023-04-26T18:27:17.588Z,17.20
2023-04-26T18:30:19.332Z,17.20
2023-04-26T18:33:20.974Z,17.19
2023-04-26T18:36:22.635Z,17.19
2023-04-26T18:39:24.114Z,17.19
2023-04-26T18:42:25.622Z,17.17
2023-04-26T18:45:27.108Z,17.18
2023-04-26T18:48:28.680Z,17.17
2023-04-26T18:51:30.181Z,17.17
2023-04-26T18:54:33.058Z,17.17
2023-04-26T18:57:34.559Z,17.16
2023-04-26T19:00:36.901Z,17.16
2023-04-26T19:03:38.534Z,17.14
2023-04-26T19:06:41.370Z,17.14
2023-04-26T19:09:53.692Z,17.12
2023-04-26T19:12:55.592Z,17.12
2023-04-26T19:15:57.052Z,17.10
2023-04-26T19:18:58.690Z,17.11
2023-04-26T19:22:01.033Z,17.09
2023-04-26T19:25:02.703Z,17.08
2023-04-26T19:28:04.434Z,17.09
2023-04-26T19:31:06.208Z,17.08
2023-04-26T19:34:07.753Z,17.07
2023-04-26T19:37:09.438Z,17.07
2023-04-26T19:40:11.935Z,17.07
2023-04-26T19:43:13.738Z,17.06
2023-04-26T19:46:15.568Z,17.06
2023-04-26T19:49:17.292Z,17.06
2023-04-26T19:52:18.769Z,17.06
2023-04-26T19:55:20.497Z,17.05
2023-04-26T19:58:21.973Z,17.06
2023-04-26T20:01:23.653Z,17.04
2023-04-26T20:04:25.573Z,17.05
2023-04-26T20:07:27.534Z,17.06
2023-04-26T20:10:33.700Z,17.07
2023-04-26T20:13:35.346Z,17.06
2023-04-26T20:16:37.046Z,17.05
2023-04-26T20:19:38.614Z,17.04
2023-04-26T20:22:40.655Z,17.07
2023-04-26T20:25:42.208Z,17.06
2023-04-26T20:28:43.692Z,17.05
2023-04-26T20:31:45.476Z,17.05
2023-04-26T20:34:46.965Z,17.06
2023-04-26T20:37:48.499Z,17.05
2023-04-26T20:40:50.029Z,17.05
2023-04-26T20:43:52.874Z,17.05
2023-04-26T20:46:54.385Z,17.06
2023-04-26T20:49:56.014Z,17.06
2023-04-26T20:52:57.654Z,17.05
2023-04-26T20:55:59.184Z,17.04
2023-04-26T20:59:00.722Z,17.03
2023-04-26T21:02:02.926Z,17.03
2023-04-26T21:05:04.970Z,17.01
2023-04-26T21:08:06.436Z,17.01
2023-04-26T21:11:07.910Z,17.01
2023-04-26T21:14:09.492Z,17.00
2023-04-26T21:17:11.228Z,17.00
2023-04-26T21:20:12.948Z,16.97
2023-04-26T21:23:14.442Z,16.95
2023-04-26T21:26:16.174Z,16.95
2023-04-26T21:29:17.656Z,16.92
2023-04-26T21:32:19.197Z,16.94
2023-04-26T21:35:20.718Z,16.92
2023-04-26T21:38:22.219Z,16.92
2023-04-26T21:41:25.653Z,16.92
2023-04-26T21:44:27.104Z,16.91
2023-04-26T21:47:28.707Z,16.89
2023-04-26T21:50:30.456Z,16.89
2023-04-26T21:53:31.976Z,16.89
2023-04-26T21:56:33.842Z,16.88
2023-04-26T21:59:36.290Z,16.87
2023-04-26T22:02:38.961Z,16.85
2023-04-26T22:05:40.882Z,16.85
2023-04-26T22:08:42.458Z,16.84
2023-04-26T22:11:43.985Z,16.83
2023-04-26T22:14:45.625Z,16.83
2023-04-26T22:17:47.177Z,16.83
2023-04-26T22:20:48.767Z,16.82
2023-04-26T22:23:50.401Z,16.80
2023-04-26T22:26:51.911Z,16.81
2023-04-26T22:29:53.412Z,16.80
2023-04-26T22:32:57.326Z,16.79
2023-04-26T22:35:59.513Z,16.78
2023-04-26T22:39:01.450Z,16.78
2023-04-26T22:42:02.988Z,16.78
2023-04-26T22:45:04.968Z,16.77
2023-04-26T22:48:06.616Z,16.76
2023-04-26T22:51:08.123Z,16.76
2023-04-26T22:54:09.586Z,16.75
2023-04-26T22:57:11.192Z,16.73
2023-04-26T23:00:14.456Z,16.72
2023-04-26T23:03:16.080Z,16.71
2023-04-26T23:06:17.593Z,16.70
2023-04-26T23:09:19.103Z,16.69
2023-04-26T23:12:20.593Z,16.69
2023-04-26T23:15:22.158Z,16.69
2023-04-26T23:18:23.619Z,16.67
2023-04-26T23:21:25.070Z,16.67
2023-04-26T23:24:26.772Z,16.65
2023-04-26T23:27:28.265Z,16.66
2023-04-26T23:30:29.748Z,16.64
2023-04-26T23:33:31.468Z,16.64
2023-04-26T23:36:33.380Z,16.63
2023-04-26T23:39:35.871Z,16.63
2023-04-26T23:42:37.471Z,16.62
2023-04-26T23:45:38.968Z,16.59
2023-04-26T23:48:40.900Z,16.60
2023-04-26T23:51:42.439Z,16.59
2023-04-26T23:54:43.924Z,16.58
2023-04-26T23:57:45.394Z,16.58
